createdAt,value
2022-12-22T00:00:29.170Z,6.30
2022-12-22T00:03:14.650Z,6.30
2022-12-22T00:06:00.374Z,6.30
2022-12-22T00:08:45.856Z,6.30
2022-12-22T00:11:31.903Z,6.30
2022-12-22T00:14:17.592Z,6.30
2022-12-22T00:17:03.047Z,6.20
2022-12-22T00:19:48.813Z,6.20
2022-12-22T00:22:42.711Z,6.20
2022-12-22T00:25:32.778Z,6.10
2022-12-22T00:28:18.188Z,6.10
2022-12-22T00:31:04.220Z,6.10
2022-12-22T00:33:50.442Z,6.00
2022-12-22T00:36:42.931Z,6.00
2022-12-22T00:39:31.284Z,6.00
2022-12-22T00:42:16.753Z,6.00
2022-12-22T00:45:02.161Z,6.00
2022-12-22T00:47:49.588Z,5.90
2022-12-22T00:50:35.655Z,5.90
2022-12-22T00:53:22.836Z,5.90
2022-12-22T00:56:08.492Z,6.00
2022-12-22T00:58:53.966Z,6.00
2022-12-22T01:01:39.758Z,6.00
2022-12-22T01:04:31.009Z,6.00
2022-12-22T01:07:16.543Z,6.00
2022-12-22T01:10:08.104Z,6.00
2022-12-22T01:12:56.282Z,6.00
2022-12-22T01:15:42.744Z,6.00
2022-12-22T01:18:28.365Z,6.00
2022-12-22T01:21:14.083Z,6.00
2022-12-22T01:24:00.348Z,5.90
2022-12-22T01:26:45.976Z,5.90
2022-12-22T01:29:31.584Z,5.90
2022-12-22T01:32:17.051Z,5.90
2022-12-22T01:35:02.666Z,5.90
2022-12-22T01:37:48.151Z,6.00
2022-12-22T01:40:43.538Z,6.00
2022-12-22T01:43:45.476Z,6.00
2022-12-22T01:46:41.264Z,6.00
2022-12-22T01:49:46.794Z,6.00
2022-12-22T01:52:36.334Z,6.00
2022-12-22T01:55:26.507Z,6.00
2022-12-22T01:58:12.081Z,6.00
2022-12-22T02:00:58.431Z,6.00
2022-12-22T02:03:44.104Z,6.00
2022-12-22T02:06:38.153Z,6.10
2022-12-22T02:10:05.247Z,6.10
2022-12-22T02:12:58.119Z,6.20
2022-12-22T02:16:00.813Z,6.30
2022-12-22T02:18:57.083Z,6.40
2022-12-22T02:21:44.582Z,6.50
2022-12-22T02:24:38.062Z,6.50
2022-12-22T02:27:26.739Z,6.50
2022-12-22T02:30:15.320Z,6.50
2022-12-22T02:33:09.202Z,6.60
2022-12-22T02:36:23.076Z,6.60
2022-12-22T02:39:20.783Z,6.70
2022-12-22T02:42:25.599Z,6.60
2022-12-22T02:45:38.363Z,6.60
2022-12-22T02:48:30.405Z,6.70
2022-12-22T02:51:34.810Z,6.70
2022-12-22T02:54:21.366Z,6.70
2022-12-22T02:57:06.862Z,6.70
2022-12-22T02:59:52.470Z,6.60
2022-12-22T03:02:38.135Z,6.60
2022-12-22T03:05:24.504Z,6.60
2022-12-22T03:08:10.029Z,6.60
2022-12-22T03:10:55.717Z,6.50
2022-12-22T03:13:41.245Z,6.50
2022-12-22T03:16:26.582Z,6.50
2022-12-22T03:19:12.038Z,6.50
2022-12-22T03:21:57.464Z,6.50
2022-12-22T03:24:43.100Z,6.50
2022-12-22T03:27:09.770Z,6.50
2022-12-22T03:29:36.397Z,6.50
2022-12-22T03:32:03.305Z,6.60
2022-12-22T03:34:29.957Z,6.60
2022-12-22T03:36:56.650Z,6.70
2022-12-22T03:39:23.398Z,6.70
2022-12-22T03:42:08.986Z,6.80
2022-12-22T03:44:54.448Z,7.00
2022-12-22T03:47:21.173Z,7.00
2022-12-22T03:49:47.793Z,7.10
2022-12-22T03:52:14.475Z,7.20
2022-12-22T03:54:41.115Z,7.30
2022-12-22T03:57:07.758Z,7.40
2022-12-22T03:59:34.415Z,7.60
2022-12-22T04:02:01.318Z,7.70
2022-12-22T04:04:28.081Z,7.70
2022-12-22T04:06:54.985Z,7.80
2022-12-22T04:09:22.628Z,7.80
2022-12-22T04:12:08.229Z,7.80
2022-12-22T04:14:35.533Z,7.80
2022-12-22T04:17:03.666Z,7.80
2022-12-22T04:19:31.032Z,7.80
2022-12-22T04:21:57.792Z,7.80
2022-12-22T04:24:24.642Z,7.80
2022-12-22T04:26:51.534Z,7.80
2022-12-22T04:29:18.263Z,7.70
2022-12-22T04:31:45.097Z,7.70
2022-12-22T04:34:11.736Z,7.70
2022-12-22T04:36:38.616Z,7.70
2022-12-22T04:39:05.265Z,7.60
2022-12-22T04:41:32.000Z,7.60
2022-12-22T04:43:58.685Z,7.60
2022-12-22T04:46:25.552Z,7.60
2022-12-22T04:48:57.913Z,7.60
2022-12-22T04:51:26.657Z,7.50
2022-12-22T04:53:53.253Z,7.50
2022-12-22T04:56:20.120Z,7.50
2022-12-22T04:58:46.873Z,7.40
2022-12-22T05:01:16.093Z,7.40
2022-12-22T05:03:43.187Z,7.40
2022-12-22T05:06:10.428Z,7.30
2022-12-22T05:08:37.280Z,7.30
2022-12-22T05:11:04.036Z,7.20
2022-12-22T05:13:31.817Z,7.20
2022-12-22T05:16:07.254Z,7.10
2022-12-22T05:18:35.354Z,7.10
2022-12-22T05:21:04.501Z,7.10
2022-12-22T05:23:31.423Z,7.00
2022-12-22T05:25:58.176Z,6.90
2022-12-22T05:28:24.815Z,6.80
2022-12-22T05:30:52.112Z,6.80
2022-12-22T05:33:19.563Z,6.70
2022-12-22T05:35:46.355Z,6.60
2022-12-22T05:38:12.999Z,6.60
2022-12-22T05:40:39.679Z,6.50
2022-12-22T05:43:06.387Z,6.50
2022-12-22T05:45:33.026Z,6.50
2022-12-22T05:47:59.732Z,6.40
2022-12-22T05:50:26.611Z,6.40
2022-12-22T05:53:05.230Z,6.30
2022-12-22T05:55:32.144Z,6.30
2022-12-22T05:58:01.756Z,6.20
2022-12-22T06:00:32.428Z,6.20
2022-12-22T06:02:59.474Z,6.20
2022-12-22T06:05:26.199Z,6.20
2022-12-22T06:07:52.854Z,6.20
2022-12-22T06:10:19.554Z,6.30
2022-12-22T06:12:46.311Z,6.30
2022-12-22T06:15:13.606Z,6.40
2022-12-22T06:17:44.796Z,6.50
2022-12-22T06:20:12.860Z,6.70
2022-12-22T06:22:39.626Z,6.80
2022-12-22T06:25:06.538Z,6.90
2022-12-22T06:27:33.369Z,7.00
2022-12-22T06:29:59.947Z,7.10
2022-12-22T06:32:26.610Z,7.20
2022-12-22T06:34:53.299Z,7.30
2022-12-22T06:37:20.133Z,7.40
2022-12-22T06:39:46.727Z,7.40
2022-12-22T06:42:32.411Z,7.50
2022-12-22T06:44:59.059Z,7.60
2022-12-22T06:47:25.740Z,7.80
2022-12-22T06:49:52.520Z,7.90
2022-12-22T06:52:19.181Z,8.10
2022-12-22T06:54:45.943Z,8.30
2022-12-22T06:57:12.722Z,8.40
2022-12-22T06:59:39.418Z,8.50
2022-12-22T07:02:06.469Z,8.50
2022-12-22T07:04:33.302Z,8.50
2022-12-22T07:06:59.939Z,8.50
2022-12-22T07:09:26.618Z,8.50
2022-12-22T07:11:53.363Z,8.40
2022-12-22T07:14:20.278Z,8.40
2022-12-22T07:16:47.463Z,8.30
2022-12-22T07:19:14.456Z,8.30
2022-12-22T07:21:41.149Z,8.20
2022-12-22T07:24:08.292Z,8.30
2022-12-22T07:26:35.071Z,8.30
2022-12-22T07:29:11.124Z,8.30
2022-12-22T07:31:37.881Z,8.30
2022-12-22T07:34:05.118Z,8.30
2022-12-22T07:36:31.884Z,8.30
2022-12-22T07:38:58.522Z,8.30
2022-12-22T07:41:43.861Z,8.30
2022-12-22T07:44:11.478Z,8.30
2022-12-22T07:46:39.803Z,8.40
2022-12-22T07:49:26.591Z,8.40
2022-12-22T07:51:56.844Z,8.50
2022-12-22T07:54:24.140Z,8.60
2022-12-22T07:56:50.966Z,8.80
2022-12-22T07:59:17.739Z,8.90
2022-12-22T08:01:45.570Z,8.90
2022-12-22T08:04:14.326Z,9.00
2022-12-22T08:06:42.349Z,9.00
2022-12-22T08:09:12.844Z,9.00
2022-12-22T08:11:39.533Z,9.00
2022-12-22T08:14:06.334Z,9.00
2022-12-22T08:16:33.105Z,9.10
2022-12-22T08:18:59.843Z,9.20
2022-12-22T08:21:26.562Z,9.30
2022-12-22T08:23:53.238Z,9.40
2022-12-22T08:26:35.013Z,9.50
2022-12-22T08:29:15.699Z,9.60
2022-12-22T08:31:43.568Z,9.70
2022-12-22T08:34:14.291Z,9.80
2022-12-22T08:36:45.602Z,9.80
2022-12-22T08:39:13.784Z,9.90
2022-12-22T08:41:53.270Z,9.90
2022-12-22T08:44:25.449Z,10.00
2022-12-22T08:46:53.330Z,10.10
2022-12-22T08:49:20.474Z,10.30
2022-12-22T08:51:47.956Z,10.50
2022-12-22T08:54:15.400Z,10.70
2022-12-22T08:56:42.986Z,11.00
2022-12-22T08:59:10.233Z,11.30
2022-12-22T09:01:38.657Z,11.50
2022-12-22T09:04:09.680Z,11.70
2022-12-22T09:06:40.852Z,11.90
2022-12-22T09:09:10.369Z,12.20
2022-12-22T09:11:37.206Z,12.30
2022-12-22T09:14:04.260Z,12.50
2022-12-22T09:16:32.386Z,12.70
2022-12-22T09:18:59.551Z,12.90
2022-12-22T09:21:27.316Z,13.00
2022-12-22T09:23:55.119Z,13.10
2022-12-22T09:26:23.294Z,13.00
2022-12-22T09:28:51.083Z,12.90
2022-12-22T09:31:22.027Z,12.60
2022-12-22T09:33:49.064Z,12.40
2022-12-22T09:36:21.247Z,12.20
2022-12-22T09:38:48.419Z,12.00
2022-12-22T09:41:35.958Z,11.90
2022-12-22T09:44:12.971Z,12.00
2022-12-22T09:46:40.101Z,12.00
2022-12-22T09:49:07.405Z,12.00
2022-12-22T09:51:44.369Z,11.90
2022-12-22T09:54:12.779Z,11.80
2022-12-22T09:56:39.816Z,11.70
2022-12-22T09:59:15.462Z,11.60
2022-12-22T10:02:13.104Z,11.50
2022-12-22T10:04:59.441Z,11.40
2022-12-22T10:07:33.338Z,11.30
2022-12-22T10:10:24.918Z,11.20
2022-12-22T10:12:54.427Z,11.20
2022-12-22T10:15:22.184Z,11.20
2022-12-22T10:17:54.531Z,11.40
2022-12-22T10:20:25.552Z,11.70
2022-12-22T10:23:02.274Z,11.80
2022-12-22T10:26:26.675Z,11.90
2022-12-22T10:28:41.615Z,11.90
2022-12-22T10:31:35.262Z,11.70
2022-12-22T10:34:18.232Z,11.50
2022-12-22T10:36:53.135Z,11.30
2022-12-22T10:39:26.088Z,11.20
2022-12-22T10:41:56.342Z,11.10
2022-12-22T10:44:27.728Z,11.10
2022-12-22T10:46:57.215Z,11.00
2022-12-22T10:52:15.714Z,11.00
2022-12-22T10:54:44.807Z,11.00
2022-12-22T10:57:14.942Z,11.10
2022-12-22T10:59:57.867Z,11.30
2022-12-22T11:02:26.985Z,11.50
2022-12-22T11:05:00.203Z,11.70
2022-12-22T11:07:30.172Z,12.00
2022-12-22T11:09:57.044Z,12.20
2022-12-22T11:12:44.811Z,12.40
2022-12-22T11:15:39.138Z,12.40
2022-12-22T11:18:30.592Z,12.30
2022-12-22T11:21:25.035Z,12.30
2022-12-22T11:24:10.410Z,12.30
2022-12-22T11:26:57.405Z,12.40
2022-12-22T11:29:45.656Z,12.40
2022-12-22T11:32:38.378Z,12.40
2022-12-22T11:35:35.061Z,12.40
2022-12-22T11:38:11.551Z,12.30
2022-12-22T11:40:45.986Z,12.30
2022-12-22T11:43:42.007Z,12.40
2022-12-22T11:46:30.181Z,12.50
2022-12-22T11:49:17.969Z,12.60
2022-12-22T11:51:59.694Z,12.50
2022-12-22T11:54:44.528Z,12.50
2022-12-22T11:57:44.173Z,12.30
2022-12-22T12:00:15.471Z,12.20
2022-12-22T12:02:47.853Z,12.10
2022-12-22T12:05:42.347Z,12.00
2022-12-22T12:08:30.740Z,11.90
2022-12-22T12:11:20.222Z,11.90
2022-12-22T12:14:18.374Z,11.90
2022-12-22T12:17:08.803Z,11.90
2022-12-22T12:19:59.324Z,11.90
2022-12-22T12:22:36.444Z,11.80
2022-12-22T12:25:26.544Z,11.70
2022-12-22T12:28:19.379Z,11.60
2022-12-22T12:30:56.513Z,11.40
2022-12-22T12:33:48.209Z,11.20
2022-12-22T12:36:27.419Z,11.00
2022-12-22T12:39:23.830Z,10.90
2022-12-22T12:41:59.563Z,10.80
2022-12-22T12:44:34.381Z,10.80
2022-12-22T12:47:24.551Z,10.70
2022-12-22T12:50:09.140Z,10.70
2022-12-22T12:52:43.968Z,10.70
2022-12-22T12:55:54.143Z,10.70
2022-12-22T12:58:38.880Z,10.60
2022-12-22T13:01:11.504Z,10.70
2022-12-22T13:06:51.344Z,11.10
2022-12-22T13:12:32.855Z,11.60
2022-12-22T13:15:01.246Z,11.60
2022-12-22T13:17:50.300Z,11.60
2022-12-22T13:20:26.934Z,11.50
2022-12-22T13:23:00.022Z,11.50
2022-12-22T13:25:54.444Z,11.40
2022-12-22T13:28:23.769Z,11.30
2022-12-22T13:30:58.048Z,11.30
2022-12-22T13:33:29.125Z,11.30
2022-12-22T13:35:59.346Z,11.20
2022-12-22T13:38:37.582Z,11.10
2022-12-22T13:41:26.506Z,11.00
2022-12-22T13:43:57.221Z,11.00
2022-12-22T13:46:27.290Z,10.90
2022-12-22T13:48:57.305Z,11.00
2022-12-22T13:51:32.477Z,11.00
2022-12-22T13:54:13.129Z,11.00
2022-12-22T13:56:52.162Z,11.00
2022-12-22T13:59:27.833Z,11.10
2022-12-22T14:02:21.168Z,11.00
2022-12-22T14:05:10.425Z,11.00
2022-12-22T14:07:37.361Z,11.00
2022-12-22T14:10:05.255Z,11.00
2022-12-22T14:12:46.166Z,11.00
2022-12-22T14:15:18.827Z,11.10
2022-12-22T14:17:52.073Z,11.00
2022-12-22T14:20:26.781Z,11.10
2022-12-22T14:22:58.400Z,11.10
2022-12-22T14:25:36.749Z,11.00
2022-12-22T14:28:06.019Z,10.90
2022-12-22T14:30:41.195Z,10.90
2022-12-22T14:33:17.251Z,10.80
2022-12-22T14:35:43.936Z,10.80
2022-12-22T14:38:19.256Z,10.80
2022-12-22T14:40:49.737Z,10.70
2022-12-22T14:43:21.107Z,10.60
2022-12-22T14:45:52.264Z,10.60
2022-12-22T14:48:30.856Z,10.60
2022-12-22T14:50:58.078Z,10.50
2022-12-22T14:53:29.261Z,10.50
2022-12-22T14:55:56.142Z,10.50
2022-12-22T14:58:32.517Z,10.40
2022-12-22T15:01:28.181Z,10.40
2022-12-22T15:04:17.877Z,10.40
2022-12-22T15:06:48.749Z,10.30
2022-12-22T15:09:15.334Z,10.30
2022-12-22T15:11:55.564Z,10.30
2022-12-22T15:14:38.286Z,10.20
2022-12-22T15:17:07.261Z,10.20
2022-12-22T15:19:36.228Z,10.10
2022-12-22T15:22:03.396Z,10.10
2022-12-22T15:24:30.164Z,10.10
2022-12-22T15:26:56.825Z,10.10
2022-12-22T15:29:23.639Z,10.00
2022-12-22T15:31:50.406Z,10.00
2022-12-22T15:34:23.930Z,10.00
2022-12-22T15:36:50.910Z,10.00
2022-12-22T15:39:19.937Z,9.90
2022-12-22T15:41:47.450Z,10.00
2022-12-22T15:44:14.567Z,10.10
2022-12-22T15:46:44.064Z,10.10
2022-12-22T15:49:19.894Z,10.10
2022-12-22T15:51:51.990Z,10.20
2022-12-22T15:54:19.269Z,10.30
2022-12-22T15:56:47.048Z,10.20
2022-12-22T15:59:22.194Z,10.30
2022-12-22T16:01:54.984Z,10.30
2022-12-22T16:04:28.145Z,10.30
2022-12-22T16:06:55.119Z,10.30
2022-12-22T16:09:28.860Z,10.30
2022-12-22T16:11:56.752Z,10.30
2022-12-22T16:14:24.301Z,10.20
2022-12-22T16:16:51.068Z,10.30
2022-12-22T16:19:18.598Z,10.20
2022-12-22T16:21:48.546Z,10.20
2022-12-22T16:24:34.265Z,10.30
2022-12-22T16:27:02.870Z,10.30
2022-12-22T16:29:29.776Z,10.30
2022-12-22T16:32:18.283Z,10.30
2022-12-22T16:34:45.209Z,10.30
2022-12-22T16:37:11.911Z,10.30
2022-12-22T16:39:38.584Z,10.40
2022-12-22T16:42:06.215Z,10.30
2022-12-22T16:44:33.085Z,10.30
2022-12-22T16:47:00.149Z,10.30
2022-12-22T16:49:27.233Z,10.30
2022-12-22T16:51:54.943Z,10.30
2022-12-22T16:54:21.671Z,10.30
2022-12-22T16:56:51.128Z,10.30
2022-12-22T16:59:18.258Z,10.30
2022-12-22T17:01:55.107Z,10.30
2022-12-22T17:04:27.927Z,10.30
2022-12-22T17:06:55.657Z,10.30
2022-12-22T17:09:33.457Z,10.30
2022-12-22T17:12:01.073Z,10.30
2022-12-22T17:14:39.150Z,10.30
2022-12-22T17:17:06.108Z,10.30
2022-12-22T17:19:32.989Z,10.20
2022-12-22T17:22:00.570Z,10.20
2022-12-22T17:24:28.901Z,10.10
2022-12-22T17:27:01.079Z,10.10
2022-12-22T17:29:28.246Z,10.00
2022-12-22T17:31:56.496Z,10.00
2022-12-22T17:34:23.888Z,9.90
2022-12-22T17:36:50.967Z,9.80
2022-12-22T17:39:21.176Z,9.80
2022-12-22T17:41:55.873Z,9.70
2022-12-22T17:44:25.652Z,9.60
2022-12-22T17:46:52.770Z,9.60
2022-12-22T17:49:22.065Z,9.60
2022-12-22T17:51:48.997Z,9.50
2022-12-22T17:54:25.852Z,9.50
2022-12-22T17:56:58.783Z,9.40
2022-12-22T17:59:25.447Z,9.40
2022-12-22T18:01:52.269Z,9.40
2022-12-22T18:04:19.086Z,9.40
2022-12-22T18:06:46.527Z,9.40
2022-12-22T18:09:25.035Z,9.40
2022-12-22T18:11:52.913Z,9.50
2022-12-22T18:14:21.417Z,9.50
2022-12-22T18:16:48.200Z,9.50
2022-12-22T18:19:14.922Z,9.50
2022-12-22T18:21:41.826Z,9.50
2022-12-22T18:24:16.695Z,9.40
2022-12-22T18:26:43.468Z,9.30
2022-12-22T18:29:14.678Z,9.20
2022-12-22T18:31:41.899Z,9.20
2022-12-22T18:34:08.764Z,9.10
2022-12-22T18:36:36.595Z,9.00
2022-12-22T18:39:04.621Z,9.00
2022-12-22T18:41:35.263Z,8.80
2022-12-22T18:44:01.944Z,8.70
2022-12-22T18:46:28.693Z,8.70
2022-12-22T18:49:00.387Z,8.60
2022-12-22T18:51:30.324Z,8.60
2022-12-22T18:53:57.450Z,8.60
2022-12-22T18:56:24.217Z,8.60
2022-12-22T18:58:51.130Z,8.50
2022-12-22T19:01:27.147Z,8.50
2022-12-22T19:03:57.198Z,8.40
2022-12-22T19:06:24.531Z,8.40
2022-12-22T19:08:51.642Z,8.40
2022-12-22T19:11:24.057Z,8.40
2022-12-22T19:13:52.171Z,8.40
2022-12-22T19:16:24.936Z,8.30
2022-12-22T19:18:52.017Z,8.30
2022-12-22T19:21:19.766Z,8.30
2022-12-22T19:23:46.753Z,8.30
2022-12-22T19:26:26.671Z,8.40
2022-12-22T19:29:01.128Z,8.40
2022-12-22T19:31:33.440Z,8.40
2022-12-22T19:34:04.054Z,8.40
2022-12-22T19:36:33.159Z,8.40
2022-12-22T19:39:05.631Z,8.40
2022-12-22T19:41:52.655Z,8.40
2022-12-22T19:44:21.539Z,8.50
2022-12-22T19:46:49.010Z,8.50
2022-12-22T19:49:18.604Z,8.40
2022-12-22T19:51:45.543Z,8.40
2022-12-22T19:54:12.329Z,8.40
2022-12-22T19:56:39.952Z,8.40
2022-12-22T19:59:18.122Z,8.40
2022-12-22T20:01:49.166Z,8.40
2022-12-22T20:04:16.133Z,8.40
2022-12-22T20:06:42.735Z,8.40
2022-12-22T20:09:09.511Z,8.40
2022-12-22T20:11:36.265Z,8.50
2022-12-22T20:14:02.909Z,8.50
2022-12-22T20:16:29.632Z,8.50
2022-12-22T20:18:56.382Z,8.50
2022-12-22T20:21:29.735Z,8.60
2022-12-22T20:23:59.921Z,8.60
2022-12-22T20:26:27.569Z,8.70
2022-12-22T20:28:54.675Z,8.70
2022-12-22T20:31:23.810Z,8.70
2022-12-22T20:33:51.515Z,8.70
2022-12-22T20:36:27.610Z,8.70
2022-12-22T20:38:57.719Z,8.70
2022-12-22T20:41:25.417Z,8.70
2022-12-22T20:43:53.452Z,8.60
2022-12-22T20:46:26.124Z,8.60
2022-12-22T20:48:59.340Z,8.60
2022-12-22T20:51:28.853Z,8.70
2022-12-22T20:53:57.279Z,8.60
2022-12-22T20:56:28.134Z,8.60
2022-12-22T20:58:56.219Z,8.60
2022-12-22T21:01:23.602Z,8.60
2022-12-22T21:03:50.753Z,8.60
2022-12-22T21:06:28.903Z,8.60
2022-12-22T21:08:57.421Z,8.60
2022-12-22T21:11:24.600Z,8.50
2022-12-22T21:13:52.683Z,8.40
2022-12-22T21:16:23.689Z,8.40
2022-12-22T21:18:51.002Z,8.30
2022-12-22T21:21:18.143Z,8.20
2022-12-22T21:23:44.995Z,8.10
2022-12-22T21:26:34.750Z,8.10
2022-12-22T21:29:09.076Z,8.00
2022-12-22T21:31:35.837Z,8.00
2022-12-22T21:34:02.488Z,7.90
2022-12-22T21:36:33.793Z,7.90
2022-12-22T21:39:14.145Z,7.90
2022-12-22T21:41:59.392Z,7.90
2022-12-22T21:44:27.020Z,7.90
2022-12-22T21:46:53.969Z,7.90
2022-12-22T21:49:25.495Z,7.90
2022-12-22T21:51:53.540Z,7.80
2022-12-22T21:54:22.069Z,7.80
2022-12-22T21:56:50.080Z,7.80
2022-12-22T21:59:16.885Z,7.80
2022-12-22T22:01:45.332Z,7.80
2022-12-22T22:04:12.953Z,7.80
2022-12-22T22:06:40.126Z,7.80
2022-12-22T22:09:07.181Z,7.80
2022-12-22T22:11:54.280Z,7.80
2022-12-22T22:14:21.421Z,7.80
2022-12-22T22:16:48.395Z,7.80
2022-12-22T22:19:15.239Z,7.70
2022-12-22T22:21:41.908Z,7.70
2022-12-22T22:24:08.581Z,7.70
2022-12-22T22:26:35.299Z,7.70
2022-12-22T22:29:01.982Z,7.60
2022-12-22T22:31:28.871Z,7.60
2022-12-22T22:33:55.791Z,7.60
2022-12-22T22:36:22.394Z,7.60
2022-12-22T22:38:52.028Z,7.60
2022-12-22T22:41:18.952Z,7.60
2022-12-22T22:43:45.679Z,7.60
2022-12-22T22:46:12.336Z,7.60
2022-12-22T22:48:39.019Z,7.50
2022-12-22T22:51:09.944Z,7.50
2022-12-22T22:53:36.668Z,7.60
2022-12-22T22:56:03.807Z,7.70
2022-12-22T22:58:30.523Z,7.80
2022-12-22T23:01:05.625Z,7.90
2022-12-22T23:03:32.523Z,7.90
2022-12-22T23:06:03.479Z,8.00
2022-12-22T23:08:30.597Z,8.10
2022-12-22T23:10:57.695Z,8.30
2022-12-22T23:13:24.438Z,8.50
2022-12-22T23:16:02.912Z,8.60
2022-12-22T23:18:31.000Z,8.80
2022-12-22T23:20:59.575Z,8.80
2022-12-22T23:23:26.480Z,8.90
2022-12-22T23:25:53.076Z,8.90
2022-12-22T23:28:20.264Z,8.90
2022-12-22T23:30:49.637Z,8.90
2022-12-22T23:33:17.482Z,9.00
2022-12-22T23:35:47.205Z,9.10
2022-12-22T23:38:14.884Z,9.10
2022-12-22T23:40:52.256Z,9.20
2022-12-22T23:43:20.516Z,9.20
2022-12-22T23:45:47.151Z,9.30
2022-12-22T23:48:14.021Z,9.30
2022-12-22T23:50:40.755Z,9.30
2022-12-22T23:53:07.615Z,9.30
2022-12-22T23:55:34.382Z,9.40
2022-12-22T23:58:01.103Z,9.50
